createdAt,value
2018-08-27T00:01:40.372Z,7.20
2018-08-27T00:04:08.260Z,6.37
2018-08-27T00:06:36.068Z,6.83
2018-08-27T00:09:05.520Z,11.33
2018-08-27T00:11:33.403Z,4.67
2018-08-27T00:14:01.303Z,4.03
2018-08-27T00:16:40.943Z,8.20
2018-08-27T00:19:09.754Z,6.43
2018-08-27T00:21:37.657Z,5.00
2018-08-27T00:24:05.556Z,5.30
2018-08-27T00:26:33.442Z,5.80
2018-08-27T00:29:01.337Z,6.20
2018-08-27T00:31:29.245Z,7.43
2018-08-27T00:33:57.244Z,11.90
2018-08-27T00:36:25.160Z,7.10
2018-08-27T00:38:53.050Z,4.30
2018-08-27T00:41:21.052Z,6.63
2018-08-27T00:43:48.936Z,5.40
2018-08-27T00:46:16.837Z,4.40
2018-08-27T00:48:44.680Z,5.83
2018-08-27T00:51:12.641Z,5.00
2018-08-27T00:53:40.563Z,7.67
2018-08-27T00:56:08.608Z,6.60
2018-08-27T00:58:36.536Z,4.43
2018-08-27T01:01:04.438Z,5.53
2018-08-27T01:03:32.406Z,7.27
2018-08-27T01:06:00.313Z,7.73
2018-08-27T01:08:28.233Z,6.30
2018-08-27T01:10:56.171Z,5.70
2018-08-27T01:13:24.066Z,3.30
2018-08-27T01:15:51.957Z,4.20
2018-08-27T01:18:19.846Z,2.93
2018-08-27T01:20:47.636Z,4.90
2018-08-27T01:23:15.619Z,7.90
2018-08-27T01:25:43.501Z,6.93
2018-08-27T01:28:11.344Z,3.80
2018-08-27T01:30:39.250Z,4.70
2018-08-27T01:33:07.112Z,5.93
2018-08-27T01:35:35.047Z,3.93
2018-08-27T01:38:02.958Z,5.60
2018-08-27T01:40:30.882Z,6.23
2018-08-27T01:42:58.730Z,3.73
2018-08-27T01:45:26.673Z,7.43
2018-08-27T01:47:54.562Z,3.20
2018-08-27T01:50:22.477Z,6.03
2018-08-27T01:52:50.429Z,4.63
2018-08-27T01:55:18.328Z,5.13
2018-08-27T01:57:46.181Z,3.37
2018-08-27T02:00:14.022Z,4.23
2018-08-27T02:02:41.921Z,5.20
2018-08-27T02:05:09.844Z,4.10
2018-08-27T02:07:38.117Z,6.03
2018-08-27T02:10:05.980Z,5.17
2018-08-27T02:12:33.888Z,2.60
2018-08-27T02:15:01.818Z,6.20
2018-08-27T02:17:29.721Z,4.80
2018-08-27T02:19:57.574Z,3.70
2018-08-27T02:22:25.425Z,3.47
2018-08-27T02:24:53.424Z,3.70
2018-08-27T02:27:21.352Z,7.27
2018-08-27T02:29:49.277Z,6.57
2018-08-27T02:32:17.171Z,4.37
2018-08-27T02:34:45.014Z,3.87
2018-08-27T02:37:12.906Z,4.33
2018-08-27T02:39:40.749Z,4.20
2018-08-27T02:42:08.650Z,6.83
2018-08-27T02:44:36.544Z,3.10
2018-08-27T02:47:04.614Z,11.03
2018-08-27T02:49:32.561Z,4.43
2018-08-27T02:52:00.502Z,3.73
2018-08-27T02:54:28.431Z,2.47
2018-08-27T02:56:56.325Z,5.23
2018-08-27T02:59:24.244Z,3.80
2018-08-27T03:01:53.025Z,6.40
2018-08-27T03:04:22.077Z,2.50
2018-08-27T03:06:49.943Z,4.43
2018-08-27T03:09:17.854Z,3.20
2018-08-27T03:11:45.754Z,5.57
2018-08-27T03:14:14.678Z,6.70
2018-08-27T03:16:42.549Z,4.23
2018-08-27T03:19:10.414Z,3.57
2018-08-27T03:21:38.270Z,4.33
2018-08-27T03:24:06.145Z,4.10
2018-08-27T03:26:33.997Z,3.50
2018-08-27T03:29:01.959Z,4.63
2018-08-27T03:31:29.792Z,3.97
2018-08-27T03:33:57.661Z,6.67
2018-08-27T03:36:25.560Z,4.33
2018-08-27T03:38:53.431Z,6.60
2018-08-27T03:41:21.352Z,4.63
2018-08-27T03:43:49.278Z,2.73
2018-08-27T03:46:17.140Z,3.30
2018-08-27T03:48:44.990Z,3.90
2018-08-27T03:51:12.825Z,4.03
2018-08-27T03:53:40.725Z,3.50
2018-08-27T03:56:08.676Z,4.07
2018-08-27T03:58:36.566Z,5.60
2018-08-27T04:01:04.462Z,3.93
2018-08-27T04:03:32.384Z,3.43
2018-08-27T04:06:00.365Z,10.30
2018-08-27T04:08:28.290Z,3.47
2018-08-27T04:10:56.202Z,4.10
2018-08-27T04:13:24.097Z,5.23
2018-08-27T04:15:52.924Z,3.40
2018-08-27T04:18:20.886Z,5.30
2018-08-27T04:20:48.790Z,4.13
2018-08-27T04:23:16.673Z,5.27
2018-08-27T04:25:44.603Z,3.80
2018-08-27T04:28:12.554Z,5.40
2018-08-27T04:30:40.477Z,4.03
2018-08-27T04:33:08.318Z,4.23
2018-08-27T04:35:36.184Z,5.60
2018-08-27T04:38:04.112Z,4.33
2018-08-27T04:40:32.958Z,7.13
2018-08-27T04:43:00.761Z,3.00
2018-08-27T04:45:28.625Z,4.43
2018-08-27T04:47:56.515Z,3.70
2018-08-27T04:50:24.438Z,4.07
2018-08-27T04:52:52.318Z,4.60
2018-08-27T04:55:20.202Z,5.00
2018-08-27T04:57:48.074Z,3.77
2018-08-27T05:00:22.889Z,9.53
2018-08-27T05:02:50.750Z,3.07
2018-08-27T05:05:18.710Z,3.60
2018-08-27T05:07:46.580Z,3.10
2018-08-27T05:10:14.421Z,2.83
2018-08-27T05:12:42.326Z,5.40
2018-08-27T05:15:10.199Z,6.73
2018-08-27T05:17:38.055Z,5.37
2018-08-27T05:20:05.942Z,4.10
2018-08-27T05:22:33.899Z,3.97
2018-08-27T05:25:01.758Z,6.83
2018-08-27T05:27:29.649Z,4.33
2018-08-27T05:29:57.629Z,6.80
2018-08-27T05:32:25.524Z,11.43
2018-08-27T05:34:53.354Z,6.80
2018-08-27T05:37:21.286Z,4.80
2018-08-27T05:39:49.097Z,6.67
2018-08-27T05:42:17.041Z,5.90
2018-08-27T05:44:44.848Z,5.10
2018-08-27T05:47:12.806Z,8.93
2018-08-27T05:49:41.799Z,10.13
2018-08-27T05:52:10.848Z,6.50
2018-08-27T05:54:38.814Z,7.10
2018-08-27T05:57:06.948Z,6.13
2018-08-27T05:59:34.858Z,6.23
2018-08-27T06:02:02.930Z,3.37
2018-08-27T06:04:30.701Z,4.00
2018-08-27T06:06:58.972Z,4.03
2018-08-27T06:09:26.829Z,6.63
2018-08-27T06:11:54.673Z,6.33
2018-08-27T06:14:22.545Z,5.53
2018-08-27T06:16:50.422Z,3.23
2018-08-27T06:19:18.329Z,7.80
2018-08-27T06:21:46.282Z,6.53
2018-08-27T06:24:14.150Z,7.53
2018-08-27T06:26:42.014Z,6.70
2018-08-27T06:29:09.861Z,6.67
2018-08-27T06:31:37.756Z,9.87
2018-08-27T06:34:05.648Z,6.20
2018-08-27T06:36:33.534Z,7.80
2018-08-27T06:39:01.493Z,6.07
2018-08-27T06:41:29.475Z,4.17
2018-08-27T06:43:57.426Z,4.33
2018-08-27T06:46:25.327Z,7.60
2018-08-27T06:48:53.187Z,3.80
2018-08-27T06:51:21.176Z,4.83
2018-08-27T06:53:49.108Z,5.20
2018-08-27T06:56:17.022Z,7.30
2018-08-27T06:58:44.923Z,7.37
2018-08-27T07:01:12.873Z,4.87
2018-08-27T07:03:40.709Z,7.63
2018-08-27T07:06:08.574Z,5.73
2018-08-27T07:08:36.443Z,7.30
2018-08-27T07:11:04.295Z,7.03
2018-08-27T07:13:32.174Z,11.07
2018-08-27T07:16:00.017Z,5.90
2018-08-27T07:18:27.966Z,4.97
2018-08-27T07:20:55.904Z,10.53
2018-08-27T07:23:23.740Z,6.20
2018-08-27T07:25:51.671Z,4.50
2018-08-27T07:28:19.613Z,4.30
2018-08-27T07:30:47.491Z,4.23
2018-08-27T07:33:16.410Z,4.17
2018-08-27T07:35:44.337Z,4.07
2018-08-27T07:38:12.165Z,4.63
2018-08-27T07:40:40.138Z,4.17
2018-08-27T07:43:08.064Z,5.07
2018-08-27T07:45:36.030Z,6.57
2018-08-27T07:48:03.926Z,7.00
2018-08-27T07:50:31.908Z,4.70
2018-08-27T07:53:00.299Z,2.63
2018-08-27T07:55:28.161Z,4.23
2018-08-27T07:57:56.055Z,4.00
2018-08-27T08:00:24.804Z,3.13
2018-08-27T08:02:54.178Z,5.57
2018-08-27T08:05:22.206Z,9.40
2018-08-27T08:07:50.497Z,3.13
2018-08-27T08:10:19.002Z,5.40
2018-08-27T08:12:47.556Z,4.13
2018-08-27T08:15:15.436Z,21.83
2018-08-27T08:17:43.314Z,3.90
2018-08-27T08:20:11.459Z,5.60
2018-08-27T08:22:39.352Z,5.40
2018-08-27T08:25:07.330Z,5.10
2018-08-27T08:27:35.233Z,4.13
2018-08-27T08:30:03.093Z,3.07
2018-08-27T08:32:31.006Z,6.43
2018-08-27T08:34:58.971Z,5.33
2018-08-27T08:37:26.837Z,9.00
2018-08-27T08:39:54.774Z,5.60
2018-08-27T08:42:22.694Z,6.93
2018-08-27T08:44:50.569Z,7.20
2018-08-27T08:47:19.516Z,6.20
2018-08-27T08:49:47.507Z,2.60
2018-08-27T08:52:15.375Z,4.40
2018-08-27T08:54:43.541Z,7.90
2018-08-27T08:57:11.385Z,3.50
2018-08-27T08:59:39.261Z,5.03
2018-08-27T09:02:07.108Z,3.10
2018-08-27T09:04:35.030Z,2.23
2018-08-27T09:07:02.971Z,6.40
2018-08-27T09:09:30.834Z,4.67
2018-08-27T09:11:58.745Z,9.63
2018-08-27T09:14:26.652Z,4.87
2018-08-27T09:16:54.656Z,7.10
2018-08-27T09:19:22.522Z,3.00
2018-08-27T09:21:50.511Z,3.33
2018-08-27T09:24:18.474Z,5.63
2018-08-27T09:26:46.369Z,6.03
2018-08-27T09:29:14.266Z,6.50
2018-08-27T09:31:42.202Z,7.47
2018-08-27T09:34:10.080Z,5.00
2018-08-27T09:36:38.172Z,2.50
2018-08-27T09:39:06.781Z,2.47
2018-08-27T09:41:34.680Z,3.50
2018-08-27T09:44:02.583Z,3.80
2018-08-27T09:46:30.646Z,6.63
2018-08-27T09:48:58.520Z,4.30
2018-08-27T09:51:26.389Z,5.47
2018-08-27T09:53:54.349Z,3.77
2018-08-27T09:56:22.226Z,3.67
2018-08-27T09:58:50.154Z,4.07
2018-08-27T10:01:23.465Z,3.60
2018-08-27T10:03:51.561Z,3.30
2018-08-27T10:06:19.497Z,4.90
2018-08-27T10:08:47.413Z,4.53
2018-08-27T10:11:15.258Z,3.10
2018-08-27T10:13:43.156Z,5.73
2018-08-27T10:16:11.001Z,3.43
2018-08-27T10:18:38.866Z,4.10
2018-08-27T10:21:06.830Z,6.80
2018-08-27T10:23:35.070Z,3.60
2018-08-27T10:26:02.956Z,9.67
2018-08-27T10:28:30.877Z,5.67
2018-08-27T10:30:58.750Z,2.93
2018-08-27T10:33:26.781Z,3.70
2018-08-27T10:35:54.703Z,3.23
2018-08-27T10:38:22.617Z,9.17
2018-08-27T10:40:50.492Z,2.63
2018-08-27T10:43:18.357Z,7.00
2018-08-27T10:45:46.254Z,7.60
2018-08-27T10:48:14.179Z,3.67
2018-08-27T10:50:42.081Z,2.30
2018-08-27T10:53:09.922Z,4.47
2018-08-27T10:55:37.813Z,2.53
2018-08-27T10:58:05.698Z,3.60
2018-08-27T11:00:33.584Z,5.13
2018-08-27T11:03:01.508Z,4.50
2018-08-27T11:05:29.394Z,4.10
2018-08-27T11:07:57.308Z,5.50
2018-08-27T11:10:25.197Z,4.50
2018-08-27T11:12:53.056Z,4.10
2018-08-27T11:15:21.043Z,6.13
2018-08-27T11:17:49.225Z,2.30
2018-08-27T11:20:17.240Z,3.07
2018-08-27T11:22:45.037Z,1.90
2018-08-27T11:25:12.917Z,2.17
2018-08-27T11:27:40.797Z,2.77
2018-08-27T11:30:08.968Z,4.70
2018-08-27T11:32:37.002Z,3.73
2018-08-27T11:35:04.958Z,6.67
2018-08-27T11:37:32.915Z,4.20
2018-08-27T11:40:00.826Z,6.17
2018-08-27T11:42:29.341Z,2.93
2018-08-27T11:44:57.182Z,2.30
2018-08-27T11:47:25.033Z,2.17
2018-08-27T11:49:52.961Z,4.00
2018-08-27T11:52:20.862Z,4.30
2018-08-27T11:54:48.774Z,4.67
2018-08-27T11:57:16.617Z,12.73
2018-08-27T11:59:45.563Z,2.90
2018-08-27T12:02:13.565Z,7.87
2018-08-27T12:04:41.490Z,5.97
2018-08-27T12:07:09.434Z,3.73
2018-08-27T12:09:37.340Z,6.40
2018-08-27T12:12:05.266Z,9.33
2018-08-27T12:14:33.095Z,7.10
2018-08-27T12:17:00.989Z,9.20
2018-08-27T12:19:28.882Z,11.47
2018-08-27T12:21:56.804Z,8.87
2018-08-27T12:24:24.715Z,9.90
2018-08-27T12:26:52.551Z,8.50
2018-08-27T12:29:20.502Z,8.43
2018-08-27T12:31:49.334Z,10.27
2018-08-27T12:34:17.205Z,8.90
2018-08-27T12:36:45.130Z,8.63
2018-08-27T12:39:12.940Z,12.87
2018-08-27T12:41:40.883Z,9.50
2018-08-27T12:44:08.741Z,11.10
2018-08-27T12:46:36.657Z,12.33
2018-08-27T12:49:04.563Z,12.40
2018-08-27T12:51:32.452Z,15.10
2018-08-27T12:54:00.471Z,5.90
2018-08-27T12:56:28.340Z,6.47
2018-08-27T12:58:56.378Z,4.30
2018-08-27T13:01:24.217Z,7.80
2018-08-27T13:03:52.248Z,7.30
2018-08-27T13:06:20.202Z,4.70
2018-08-27T13:08:48.147Z,10.50
2018-08-27T13:11:16.028Z,10.20
2018-08-27T13:13:43.869Z,15.87
2018-08-27T13:16:11.708Z,10.77
2018-08-27T13:18:39.644Z,11.80
2018-08-27T13:21:13.116Z,15.10
2018-08-27T13:23:41.051Z,11.90
2018-08-27T13:26:08.947Z,13.03
2018-08-27T13:28:36.756Z,16.03
2018-08-27T13:31:04.676Z,9.03
2018-08-27T13:33:32.521Z,11.03
2018-08-27T13:36:00.393Z,5.90
2018-08-27T13:38:28.265Z,5.37
2018-08-27T13:40:56.186Z,5.40
2018-08-27T13:43:24.116Z,8.90
2018-08-27T13:45:51.974Z,11.40
2018-08-27T13:48:19.814Z,14.70
2018-08-27T13:50:47.680Z,8.03
2018-08-27T13:53:15.601Z,11.43
2018-08-27T13:55:43.486Z,7.50
2018-08-27T13:58:11.360Z,4.23
2018-08-27T14:00:39.286Z,4.17
2018-08-27T14:03:07.095Z,3.13
2018-08-27T14:05:35.684Z,6.43
2018-08-27T14:08:03.572Z,6.73
2018-08-27T14:10:31.456Z,8.03
2018-08-27T14:12:59.280Z,3.90
2018-08-27T14:15:27.265Z,4.00
2018-08-27T14:17:56.033Z,4.80
2018-08-27T14:20:24.981Z,4.60
2018-08-27T14:22:52.792Z,5.00
2018-08-27T14:25:20.662Z,4.50
2018-08-27T14:27:48.675Z,6.03
2018-08-27T14:30:16.621Z,3.60
2018-08-27T14:32:45.543Z,4.10
2018-08-27T14:35:13.356Z,4.40
2018-08-27T14:37:41.272Z,4.83
2018-08-27T14:40:09.577Z,2.30
2018-08-27T14:42:37.530Z,5.67
2018-08-27T14:45:05.669Z,5.77
2018-08-27T14:47:33.428Z,10.93
2018-08-27T14:50:01.308Z,2.57
2018-08-27T14:52:29.160Z,3.93
2018-08-27T14:54:57.031Z,3.40
2018-08-27T14:57:24.901Z,7.20
2018-08-27T14:59:52.800Z,5.97
2018-08-27T15:02:20.641Z,4.73
2018-08-27T15:04:48.508Z,8.97
2018-08-27T15:07:16.373Z,6.57
2018-08-27T15:09:44.231Z,6.00
2018-08-27T15:12:12.081Z,3.13
2018-08-27T15:14:39.977Z,6.43
2018-08-27T15:17:07.865Z,5.73
2018-08-27T15:19:35.697Z,4.33
2018-08-27T15:22:03.520Z,4.70
2018-08-27T15:24:31.481Z,5.40
2018-08-27T15:26:59.352Z,7.97
2018-08-27T15:29:27.233Z,4.73
2018-08-27T15:31:56.069Z,14.00
2018-08-27T15:34:23.892Z,6.23
2018-08-27T15:36:52.777Z,8.03
2018-08-27T15:39:20.676Z,2.97
2018-08-27T15:41:49.567Z,7.97
2018-08-27T15:44:17.510Z,3.23
2018-08-27T15:46:45.453Z,6.90
2018-08-27T15:49:13.622Z,6.23
2018-08-27T15:51:41.888Z,4.23
2018-08-27T15:54:10.809Z,4.33
2018-08-27T15:56:39.268Z,3.93
2018-08-27T15:59:07.109Z,3.07
2018-08-27T16:01:34.964Z,6.73
2018-08-27T16:04:03.099Z,4.37
2018-08-27T16:06:30.928Z,8.83
2018-08-27T16:08:59.013Z,6.20
2018-08-27T16:11:26.939Z,6.63
2018-08-27T16:13:54.805Z,4.50
2018-08-27T16:16:22.669Z,5.67
2018-08-27T16:18:50.553Z,9.27
2018-08-27T16:21:18.468Z,5.50
2018-08-27T16:23:46.348Z,4.27
2018-08-27T16:26:15.252Z,3.90
2018-08-27T16:28:43.141Z,4.73
2018-08-27T16:31:10.980Z,7.93
2018-08-27T16:33:38.911Z,5.63
2018-08-27T16:36:06.728Z,5.73
2018-08-27T16:38:34.611Z,3.17
2018-08-27T16:41:02.473Z,5.23
2018-08-27T16:43:30.332Z,5.33
2018-08-27T16:45:58.172Z,5.37
2018-08-27T16:48:26.334Z,7.57
2018-08-27T16:50:54.227Z,9.07
2018-08-27T16:53:22.084Z,3.67
2018-08-27T16:55:49.960Z,8.23
2018-08-27T16:58:17.816Z,7.50
2018-08-27T17:00:46.071Z,3.07
2018-08-27T17:03:14.029Z,5.13
2018-08-27T17:05:41.867Z,5.03
2018-08-27T17:08:09.736Z,5.80
2018-08-27T17:10:37.552Z,8.40
2018-08-27T17:20:07.912Z,5.17
2018-08-27T17:22:36.716Z,2.80
2018-08-27T17:25:04.620Z,6.83
2018-08-27T17:27:32.579Z,9.30
2018-08-27T17:30:00.803Z,4.27
2018-08-27T17:32:28.646Z,4.97
2018-08-27T17:34:56.472Z,5.50
2018-08-27T17:37:24.327Z,2.87
2018-08-27T17:39:52.286Z,4.00
2018-08-27T17:42:20.069Z,6.90
2018-08-27T17:44:48.032Z,3.77
2018-08-27T17:47:15.941Z,6.27
2018-08-27T17:49:43.773Z,9.37
2018-08-27T17:52:11.668Z,6.00
2018-08-27T17:54:39.508Z,2.93
2018-08-27T17:57:07.360Z,2.80
2018-08-27T17:59:35.253Z,3.70
2018-08-27T18:02:03.108Z,3.10
2018-08-27T18:04:30.996Z,3.43
2018-08-27T18:06:58.836Z,4.40
2018-08-27T18:09:26.742Z,3.47
2018-08-27T18:11:54.569Z,4.40
2018-08-27T18:14:22.457Z,2.77
2018-08-27T18:16:50.362Z,3.90
2018-08-27T18:19:18.208Z,6.87
2018-08-27T18:21:46.043Z,3.90
2018-08-27T18:24:13.897Z,6.90
2018-08-27T18:26:41.788Z,7.17
2018-08-27T18:29:09.628Z,5.60
2018-08-27T18:31:37.500Z,3.00
2018-08-27T18:34:05.416Z,4.23
2018-08-27T18:36:33.232Z,7.10
2018-08-27T18:39:01.128Z,5.13
2018-08-27T18:41:29.032Z,4.83
2018-08-27T18:43:56.885Z,3.83
2018-08-27T18:46:24.748Z,6.20
2018-08-27T18:48:52.560Z,5.40
2018-08-27T18:51:20.449Z,9.10
2018-08-27T18:53:48.410Z,8.60
2018-08-27T18:56:16.296Z,7.27
2018-08-27T18:58:44.144Z,8.90
2018-08-27T19:01:12.076Z,9.03
2018-08-27T19:03:40.087Z,8.20
2018-08-27T19:06:07.965Z,11.43
2018-08-27T19:08:35.865Z,6.20
2018-08-27T19:11:03.709Z,6.70
2018-08-27T19:13:31.741Z,8.13
2018-08-27T19:15:59.635Z,7.97
2018-08-27T19:18:27.501Z,13.27
2018-08-27T19:20:55.559Z,7.60
2018-08-27T19:23:23.600Z,7.67
2018-08-27T19:25:51.393Z,6.60
2018-08-27T19:28:19.356Z,5.70
2018-08-27T19:30:47.340Z,8.10
2018-08-27T19:33:15.235Z,5.30
2018-08-27T19:35:43.334Z,5.70
2018-08-27T19:38:12.179Z,8.47
2018-08-27T19:40:40.157Z,5.20
2018-08-27T19:43:08.151Z,4.90
2018-08-27T19:45:35.962Z,6.60
2018-08-27T19:48:03.986Z,5.03
2018-08-27T19:50:31.812Z,9.03
2018-08-27T19:52:59.685Z,4.30
2018-08-27T19:55:27.656Z,5.40
2018-08-27T19:57:55.509Z,9.23
2018-08-27T20:00:23.400Z,5.47
2018-08-27T20:02:51.241Z,7.73
2018-08-27T20:05:19.090Z,6.57
2018-08-27T20:07:46.948Z,10.47
2018-08-27T20:10:15.797Z,4.93
2018-08-27T20:12:43.633Z,7.07
2018-08-27T20:15:11.524Z,8.87
2018-08-27T20:17:39.421Z,7.20
2018-08-27T20:20:07.344Z,7.87
2018-08-27T20:22:35.224Z,5.63
2018-08-27T20:25:03.155Z,6.50
2018-08-27T20:27:31.938Z,7.47
2018-08-27T20:29:59.814Z,9.97
2018-08-27T20:32:27.701Z,8.20
2018-08-27T20:34:55.592Z,7.90
2018-08-27T20:37:23.444Z,11.17
2018-08-27T20:39:51.294Z,9.27
2018-08-27T20:42:19.191Z,11.60
2018-08-27T20:44:48.048Z,11.53
2018-08-27T20:47:15.937Z,9.73
2018-08-27T20:49:43.782Z,14.13
2018-08-27T20:52:11.730Z,10.57
2018-08-27T20:54:39.641Z,10.73
2018-08-27T20:57:09.563Z,9.57
2018-08-27T20:59:40.899Z,14.23
2018-08-27T21:02:08.772Z,9.73
2018-08-27T21:04:36.642Z,11.47
2018-08-27T21:07:04.556Z,10.60
2018-08-27T21:09:32.449Z,12.27
2018-08-27T21:12:00.289Z,11.17
2018-08-27T21:15:05.096Z,11.90
2018-08-27T21:17:33.444Z,9.97
2018-08-27T21:20:01.549Z,11.40
2018-08-27T21:22:29.428Z,9.00
2018-08-27T21:24:58.257Z,12.00
2018-08-27T21:27:26.132Z,9.97
2018-08-27T21:29:54.762Z,10.73
2018-08-27T21:32:22.564Z,9.30
2018-08-27T21:34:50.612Z,10.13
2018-08-27T21:37:18.543Z,9.70
2018-08-27T21:39:46.393Z,14.60
2018-08-27T21:42:14.256Z,10.87
2018-08-27T21:44:42.168Z,10.20
2018-08-27T21:47:09.969Z,8.63
2018-08-27T21:49:38.109Z,10.10
2018-08-27T21:52:06.089Z,11.50
2018-08-27T21:54:34.032Z,12.47
2018-08-27T21:57:02.256Z,10.33
2018-08-27T21:59:30.147Z,10.23
2018-08-27T22:01:57.979Z,11.07
2018-08-27T22:04:25.867Z,11.27
2018-08-27T22:06:53.756Z,10.43
2018-08-27T22:09:21.640Z,14.40
2018-08-27T22:11:49.484Z,11.97
2018-08-27T22:14:17.356Z,11.40
2018-08-27T22:16:45.184Z,12.20
2018-08-27T22:19:13.064Z,10.30
2018-08-27T22:21:41.004Z,9.77
2018-08-27T22:24:08.872Z,13.80
2018-08-27T22:26:36.752Z,10.47
2018-08-27T22:29:04.637Z,11.37
2018-08-27T22:31:32.629Z,13.63
2018-08-27T22:34:00.468Z,13.53
2018-08-27T22:36:28.316Z,13.40
2018-08-27T22:38:57.251Z,13.57
2018-08-27T22:41:25.092Z,11.53
2018-08-27T22:43:52.979Z,10.90
2018-08-27T22:46:20.826Z,9.03
2018-08-27T22:48:48.712Z,10.97
2018-08-27T22:51:16.572Z,10.93
2018-08-27T22:53:44.468Z,14.27
2018-08-27T22:56:12.375Z,13.07
2018-08-27T22:58:40.301Z,14.40
2018-08-27T23:01:08.132Z,13.77
2018-08-27T23:03:41.491Z,11.67
2018-08-27T23:06:09.366Z,9.13
2018-08-27T23:08:39.197Z,13.40
2018-08-27T23:11:07.129Z,10.53
2018-08-27T23:13:35.028Z,14.83
2018-08-27T23:16:06.359Z,12.10
2018-08-27T23:18:34.248Z,11.40
2018-08-27T23:21:02.129Z,13.00
2018-08-27T23:23:30.000Z,13.80
2018-08-27T23:25:57.872Z,11.13
2018-08-27T23:28:25.717Z,14.43
2018-08-27T23:30:53.632Z,10.37
2018-08-27T23:33:21.487Z,12.43
2018-08-27T23:35:49.332Z,9.70
2018-08-27T23:38:17.217Z,11.70
2018-08-27T23:40:45.048Z,13.70
2018-08-27T23:43:12.929Z,11.53
2018-08-27T23:45:40.785Z,12.60
2018-08-27T23:48:08.708Z,10.50
2018-08-27T23:50:36.521Z,10.87
2018-08-27T23:53:04.452Z,12.77
2018-08-27T23:55:32.376Z,13.97
2018-08-27T23:58:00.236Z,16.43
